createdAt,value
2024-02-24T00:02:20.725Z,5.88
2024-02-24T00:04:47.994Z,6.50
2024-02-24T00:07:15.118Z,6.20
2024-02-24T00:09:42.248Z,7.10
2024-02-24T00:12:09.652Z,8.40
2024-02-24T00:14:36.931Z,7.77
2024-02-24T00:17:04.226Z,7.38
2024-02-24T00:19:31.528Z,7.60
2024-02-24T00:21:58.738Z,7.72
2024-02-24T00:24:26.127Z,7.43
2024-02-24T00:26:53.165Z,8.38
2024-02-24T00:29:20.450Z,7.97
2024-02-24T00:31:47.817Z,8.55
2024-02-24T00:34:14.963Z,7.50
2024-02-24T00:36:42.201Z,8.55
2024-02-24T00:39:09.555Z,7.82
2024-02-24T00:41:37.501Z,8.18
2024-02-24T00:44:05.318Z,7.82
2024-02-24T00:46:32.832Z,7.68
2024-02-24T00:48:59.916Z,7.00
2024-02-24T00:51:27.077Z,7.65
2024-02-24T00:53:54.214Z,7.18
2024-02-24T00:56:22.875Z,8.55
2024-02-24T00:58:50.140Z,9.70
2024-02-24T01:01:17.270Z,8.77
2024-02-24T01:03:44.565Z,9.55
2024-02-24T01:06:11.701Z,9.02
2024-02-24T01:08:38.878Z,8.10
2024-02-24T01:11:07.952Z,7.47
2024-02-24T01:13:35.319Z,7.90
2024-02-24T01:16:02.504Z,8.85
2024-02-24T01:18:30.006Z,7.68
2024-02-24T01:20:57.422Z,7.22
2024-02-24T01:23:25.919Z,6.57
2024-02-24T01:25:53.041Z,6.20
2024-02-24T01:28:20.241Z,6.07
2024-02-24T01:30:47.577Z,5.28
2024-02-24T01:33:14.882Z,5.82
2024-02-24T01:35:42.141Z,5.88
2024-02-24T01:38:09.324Z,5.40
2024-02-24T01:40:36.565Z,6.15
2024-02-24T01:43:04.394Z,6.97
2024-02-24T01:45:31.554Z,6.97
2024-02-24T01:47:58.966Z,6.72
2024-02-24T01:50:26.701Z,6.95
2024-02-24T01:52:54.428Z,7.07
2024-02-24T01:55:21.805Z,7.43
2024-02-24T01:57:52.505Z,7.20
2024-02-24T02:00:19.671Z,6.68
2024-02-24T02:02:47.180Z,7.00
2024-02-24T02:05:15.088Z,7.68
2024-02-24T02:07:42.191Z,7.53
2024-02-24T02:10:09.794Z,7.50
2024-02-24T02:12:37.541Z,6.05
2024-02-24T02:15:05.310Z,5.75
2024-02-24T02:17:32.761Z,7.37
2024-02-24T02:20:04.836Z,7.43
2024-02-24T02:22:33.414Z,7.32
2024-02-24T02:25:00.707Z,7.35
2024-02-24T02:27:27.884Z,7.03
2024-02-24T02:29:55.041Z,7.07
2024-02-24T02:32:22.248Z,6.35
2024-02-24T02:34:49.451Z,6.55
2024-02-24T02:37:16.546Z,6.67
2024-02-24T02:39:43.627Z,5.65
2024-02-24T02:42:11.431Z,4.80
2024-02-24T02:44:38.530Z,4.88
2024-02-24T02:47:14.531Z,4.82
2024-02-24T02:49:44.788Z,5.25
2024-02-24T02:52:12.102Z,5.28
2024-02-24T02:54:39.200Z,5.67
2024-02-24T02:57:06.335Z,6.00
2024-02-24T02:59:37.187Z,5.68
2024-02-24T03:02:04.765Z,6.00
2024-02-24T03:04:32.131Z,6.63
2024-02-24T03:06:59.228Z,6.13
2024-02-24T03:09:26.359Z,6.10
2024-02-24T03:11:53.569Z,6.22
2024-02-24T03:14:21.417Z,6.90
2024-02-24T03:16:50.355Z,6.85
2024-02-24T03:19:17.935Z,7.10
2024-02-24T03:21:45.015Z,6.82
2024-02-24T03:24:12.218Z,6.55
2024-02-24T03:26:41.280Z,6.85
2024-02-24T03:29:08.492Z,6.93
2024-02-24T03:31:35.717Z,6.65
2024-02-24T03:34:03.020Z,5.90
2024-02-24T03:36:30.274Z,6.05
2024-02-24T03:38:57.426Z,6.53
2024-02-24T03:41:24.596Z,6.05
2024-02-24T03:43:52.042Z,8.05
2024-02-24T03:46:19.178Z,6.50
2024-02-24T03:48:47.719Z,6.57
2024-02-24T03:51:15.012Z,6.40
2024-02-24T03:53:42.199Z,6.10
2024-02-24T03:56:09.431Z,6.57
2024-02-24T03:58:36.662Z,6.35
2024-02-24T04:01:04.289Z,6.45
2024-02-24T04:03:31.414Z,6.10
2024-02-24T04:05:58.718Z,6.07
2024-02-24T04:08:25.950Z,7.00
2024-02-24T04:10:53.170Z,7.72
2024-02-24T04:13:21.672Z,8.50
2024-02-24T04:15:49.638Z,8.55
2024-02-24T04:18:17.106Z,8.27
2024-02-24T04:20:48.562Z,7.38
2024-02-24T04:23:16.063Z,7.32
2024-02-24T04:25:43.269Z,7.40
2024-02-24T04:28:11.111Z,7.95
2024-02-24T04:30:39.238Z,7.45
2024-02-24T04:33:07.053Z,7.22
2024-02-24T04:35:34.615Z,7.75
2024-02-24T04:38:07.778Z,8.13
2024-02-24T04:40:37.118Z,8.10
2024-02-24T04:43:04.458Z,7.10
2024-02-24T04:45:31.627Z,7.53
2024-02-24T04:47:59.004Z,8.32
2024-02-24T04:50:26.517Z,7.60
2024-02-24T04:52:53.741Z,8.23
2024-02-24T04:55:21.025Z,8.15
2024-02-24T04:57:48.288Z,7.63
2024-02-24T05:00:15.642Z,7.73
2024-02-24T05:02:42.880Z,7.63
2024-02-24T05:05:12.929Z,9.43
2024-02-24T05:07:40.321Z,8.88
2024-02-24T05:10:08.625Z,7.65
2024-02-24T05:12:37.367Z,7.53
2024-02-24T05:15:04.711Z,7.47
2024-02-24T05:17:31.878Z,6.95
2024-02-24T05:19:58.981Z,6.88
2024-02-24T05:22:26.615Z,6.95
2024-02-24T05:24:53.880Z,7.15
2024-02-24T05:27:21.320Z,7.00
2024-02-24T05:29:48.889Z,7.15
2024-02-24T05:32:18.369Z,7.53
2024-02-24T05:34:45.896Z,8.20
2024-02-24T05:37:13.254Z,7.82
2024-02-24T05:39:40.350Z,7.65
2024-02-24T05:42:07.867Z,7.90
2024-02-24T05:44:35.311Z,7.73
2024-02-24T05:47:02.518Z,7.43
2024-02-24T05:49:29.746Z,7.80
2024-02-24T05:51:57.058Z,7.53
2024-02-24T05:54:24.585Z,7.97
2024-02-24T05:56:52.133Z,7.60
2024-02-24T05:59:20.378Z,7.80
2024-02-24T06:01:47.663Z,7.57
2024-02-24T06:04:17.100Z,8.02
2024-02-24T06:06:44.559Z,8.05
2024-02-24T06:09:11.693Z,7.77
2024-02-24T06:11:38.883Z,8.55
2024-02-24T06:14:06.107Z,8.80
2024-02-24T06:16:33.150Z,9.13
2024-02-24T06:19:00.743Z,10.15
2024-02-24T06:21:29.674Z,9.32
2024-02-24T06:23:56.810Z,10.55
2024-02-24T06:26:24.065Z,10.65
2024-02-24T06:28:51.097Z,11.40
2024-02-24T06:31:19.545Z,9.93
2024-02-24T06:33:46.728Z,10.23
2024-02-24T06:36:13.957Z,10.57
2024-02-24T06:38:41.173Z,11.10
2024-02-24T06:41:08.351Z,11.48
2024-02-24T06:43:35.555Z,11.75
2024-02-24T06:46:02.685Z,11.95
2024-02-24T06:48:30.047Z,12.73
2024-02-24T06:50:57.417Z,12.73
2024-02-24T06:53:24.533Z,12.48
2024-02-24T06:55:51.574Z,13.05
2024-02-24T06:58:18.759Z,12.88
2024-02-24T07:00:45.851Z,12.73
2024-02-24T07:03:13.140Z,13.25
2024-02-24T07:05:40.391Z,12.80
2024-02-24T07:08:07.842Z,12.40
2024-02-24T07:10:34.984Z,12.40
2024-02-24T07:13:02.079Z,12.68
2024-02-24T07:15:29.660Z,12.88
2024-02-24T07:17:56.855Z,14.05
2024-02-24T07:20:24.060Z,13.95
2024-02-24T07:22:51.252Z,13.80
2024-02-24T07:25:18.509Z,13.90
2024-02-24T07:27:45.611Z,13.05
2024-02-24T07:30:13.225Z,13.05
2024-02-24T07:32:41.999Z,13.13
2024-02-24T07:35:11.104Z,12.93
2024-02-24T07:37:38.245Z,13.13
2024-02-24T07:40:05.948Z,13.57
2024-02-24T07:42:33.063Z,13.30
2024-02-24T07:45:00.487Z,14.23
2024-02-24T07:47:29.241Z,15.10
2024-02-24T07:49:56.402Z,13.35
2024-02-24T07:52:23.497Z,13.75
2024-02-24T07:54:50.991Z,12.88
2024-02-24T07:57:18.064Z,13.80
2024-02-24T07:59:45.223Z,13.77
2024-02-24T08:02:12.361Z,12.23
2024-02-24T08:04:39.560Z,12.77
2024-02-24T08:07:06.695Z,13.30
2024-02-24T08:09:33.950Z,13.73
2024-02-24T08:12:01.473Z,15.02
2024-02-24T08:14:28.678Z,15.45
2024-02-24T08:16:55.865Z,14.07
2024-02-24T08:19:23.003Z,14.00
2024-02-24T08:21:51.339Z,14.02
2024-02-24T08:24:18.503Z,15.00
2024-02-24T08:26:46.871Z,15.57
2024-02-24T08:29:14.156Z,15.07
2024-02-24T08:31:41.552Z,14.88
2024-02-24T08:34:08.908Z,14.18
2024-02-24T08:36:36.999Z,12.15
2024-02-24T08:39:04.875Z,13.00
2024-02-24T08:41:33.493Z,9.98
2024-02-24T08:44:02.942Z,10.00
2024-02-24T08:46:31.062Z,8.50
2024-02-24T08:48:59.086Z,8.10
2024-02-24T08:51:27.550Z,8.57
2024-02-24T08:53:55.274Z,9.57
2024-02-24T08:56:24.517Z,8.98
2024-02-24T08:58:51.987Z,9.38
2024-02-24T09:01:22.900Z,9.73
2024-02-24T09:03:50.491Z,9.82
2024-02-24T09:06:17.886Z,10.02
2024-02-24T09:08:47.328Z,10.95
2024-02-24T09:11:14.571Z,10.77
2024-02-24T09:13:42.190Z,11.40
2024-02-24T09:16:09.309Z,11.40
2024-02-24T09:18:36.481Z,9.30
2024-02-24T09:21:03.965Z,8.98
2024-02-24T09:23:31.313Z,8.73
2024-02-24T09:25:58.431Z,11.25
2024-02-24T09:28:25.547Z,11.40
2024-02-24T09:30:53.106Z,11.18
2024-02-24T09:33:21.148Z,9.43
2024-02-24T09:35:48.517Z,8.00
2024-02-24T09:38:15.677Z,8.30
2024-02-24T09:40:42.907Z,8.13
2024-02-24T09:43:10.052Z,8.48
2024-02-24T09:45:43.379Z,10.13
2024-02-24T09:48:12.319Z,9.50
2024-02-24T09:50:40.175Z,9.60
2024-02-24T09:53:08.615Z,10.00
2024-02-24T09:55:39.148Z,12.98
2024-02-24T09:58:10.786Z,13.18
2024-02-24T10:00:38.967Z,12.02
2024-02-24T10:03:06.723Z,12.50
2024-02-24T10:05:37.841Z,12.73
2024-02-24T10:08:05.481Z,12.95
2024-02-24T10:10:33.141Z,13.85
2024-02-24T10:13:02.593Z,12.83
2024-02-24T10:15:30.657Z,12.90
2024-02-24T10:17:59.148Z,12.13
2024-02-24T10:20:27.211Z,12.40
2024-02-24T10:22:55.340Z,10.32
2024-02-24T10:25:23.098Z,12.77
2024-02-24T10:27:50.352Z,15.20
2024-02-24T10:30:20.862Z,23.47
2024-02-24T10:32:52.248Z,18.57
2024-02-24T10:35:19.698Z,15.03
2024-02-24T10:38:03.956Z,13.13
2024-02-24T10:40:37.541Z,16.50
2024-02-24T10:43:06.172Z,18.07
2024-02-24T10:45:33.578Z,16.65
2024-02-24T10:48:00.794Z,15.63
2024-02-24T10:50:28.246Z,15.10
2024-02-24T10:52:56.971Z,15.43
2024-02-24T10:55:25.230Z,14.50
2024-02-24T10:57:53.938Z,15.70
2024-02-24T11:00:28.193Z,15.85
2024-02-24T11:02:55.935Z,17.87
2024-02-24T11:05:23.149Z,17.60
2024-02-24T11:07:50.426Z,19.90
2024-02-24T11:10:20.674Z,19.85
2024-02-24T11:12:52.057Z,18.25
2024-02-24T11:15:20.339Z,18.60
2024-02-24T11:17:54.482Z,19.58
2024-02-24T11:20:40.157Z,20.05
2024-02-24T11:23:33.493Z,20.83
2024-02-24T11:26:13.934Z,18.52
2024-02-24T11:28:42.554Z,18.08
2024-02-24T11:31:09.871Z,17.85
2024-02-24T11:33:39.149Z,34.65
2024-02-24T11:36:07.984Z,37.10
2024-02-24T11:38:35.643Z,34.95
2024-02-24T11:41:07.176Z,36.15
2024-02-24T11:43:34.856Z,29.95
2024-02-24T11:46:05.292Z,30.95
2024-02-24T11:48:32.721Z,20.15
2024-02-24T11:51:00.627Z,27.83
2024-02-24T11:53:29.148Z,26.73
2024-02-24T11:55:56.586Z,26.48
2024-02-24T11:58:23.853Z,26.33
2024-02-24T12:00:51.017Z,27.27
2024-02-24T12:03:18.186Z,27.88
2024-02-24T12:05:45.972Z,33.53
2024-02-24T12:08:17.359Z,34.20
2024-02-24T12:10:44.776Z,30.15
2024-02-24T12:13:17.113Z,27.13
2024-02-24T12:15:45.794Z,23.63
2024-02-24T12:18:13.756Z,21.25
2024-02-24T12:20:49.663Z,19.75
2024-02-24T12:23:20.429Z,17.90
2024-02-24T12:25:47.819Z,14.80
2024-02-24T12:28:14.978Z,15.90
2024-02-24T12:30:43.878Z,14.18
2024-02-24T12:33:18.216Z,15.43
2024-02-24T12:35:48.941Z,16.05
2024-02-24T12:38:19.589Z,16.77
2024-02-24T12:40:47.313Z,15.20
2024-02-24T12:43:14.536Z,13.77
2024-02-24T12:45:41.879Z,15.05
2024-02-24T12:48:09.597Z,13.57
2024-02-24T12:50:37.235Z,12.40
2024-02-24T12:53:10.560Z,12.68
2024-02-24T12:55:38.026Z,13.40
2024-02-24T12:58:05.376Z,13.50
2024-02-24T13:00:32.582Z,12.85
2024-02-24T13:03:01.081Z,12.75
2024-02-24T13:05:28.680Z,13.40
2024-02-24T13:07:56.297Z,12.40
2024-02-24T13:10:23.692Z,11.95
2024-02-24T13:12:50.841Z,10.85
2024-02-24T13:15:18.256Z,12.38
2024-02-24T13:17:48.629Z,11.52
2024-02-24T13:20:15.789Z,11.63
2024-02-24T13:22:43.294Z,12.32
2024-02-24T13:25:10.750Z,12.15
2024-02-24T13:27:38.159Z,14.35
2024-02-24T13:30:06.442Z,13.43
2024-02-24T13:32:34.219Z,11.30
2024-02-24T13:35:01.470Z,9.57
2024-02-24T13:37:29.300Z,14.73
2024-02-24T13:39:56.583Z,12.60
2024-02-24T13:42:23.888Z,11.65
2024-02-24T13:44:51.206Z,12.00
2024-02-24T13:47:18.897Z,11.30
2024-02-24T13:49:46.196Z,14.07
2024-02-24T13:52:13.337Z,14.38
2024-02-24T13:54:40.408Z,13.48
2024-02-24T13:57:07.668Z,13.60
2024-02-24T13:59:34.764Z,16.73
2024-02-24T14:02:02.018Z,20.92
2024-02-24T14:04:29.265Z,22.07
2024-02-24T14:06:57.622Z,20.65
2024-02-24T14:09:24.904Z,20.17
2024-02-24T14:11:54.263Z,18.92
2024-02-24T14:14:21.667Z,20.75
2024-02-24T14:16:48.815Z,18.13
2024-02-24T14:19:20.962Z,15.93
2024-02-24T14:21:49.852Z,12.55
2024-02-24T14:24:16.940Z,12.32
2024-02-24T14:26:44.170Z,18.20
2024-02-24T14:29:11.331Z,16.35
2024-02-24T14:31:38.400Z,15.50
2024-02-24T14:34:05.733Z,23.95
2024-02-24T14:36:32.856Z,21.15
2024-02-24T14:39:01.212Z,22.80
2024-02-24T14:41:28.937Z,22.23
2024-02-24T14:43:56.061Z,20.55
2024-02-24T14:46:23.168Z,23.27
2024-02-24T14:48:50.605Z,21.25
2024-02-24T14:51:21.099Z,22.58
2024-02-24T14:53:52.657Z,24.87
2024-02-24T14:56:20.419Z,23.60
2024-02-24T14:58:47.633Z,21.70
2024-02-24T15:01:15.891Z,25.02
2024-02-24T15:03:45.979Z,27.07
2024-02-24T15:06:16.335Z,25.73
2024-02-24T15:08:43.687Z,22.70
2024-02-24T15:11:11.099Z,25.60
2024-02-24T15:13:38.777Z,21.48
2024-02-24T15:16:06.726Z,17.52
2024-02-24T15:18:34.396Z,21.05
2024-02-24T15:21:01.854Z,19.57
2024-02-24T15:23:29.129Z,29.80
2024-02-24T15:25:56.175Z,31.73
2024-02-24T15:28:24.016Z,24.20
2024-02-24T15:30:51.194Z,32.63
2024-02-24T15:33:18.644Z,30.25
2024-02-24T15:35:45.925Z,35.33
2024-02-24T15:38:13.350Z,40.60
2024-02-24T15:40:42.339Z,37.57
2024-02-24T15:43:09.874Z,30.57
2024-02-24T15:45:36.976Z,34.40
2024-02-24T15:48:04.868Z,34.90
2024-02-24T15:50:32.227Z,36.13
2024-02-24T15:52:59.284Z,36.38
2024-02-24T15:55:26.533Z,37.70
2024-02-24T15:57:53.832Z,31.20
2024-02-24T16:00:24.227Z,29.05
2024-02-24T16:02:51.476Z,29.30
2024-02-24T16:05:19.639Z,47.33
2024-02-24T16:07:46.908Z,76.05
2024-02-24T16:10:14.210Z,55.60
2024-02-24T16:12:41.260Z,50.17
2024-02-24T16:15:08.766Z,53.33
2024-02-24T16:17:36.170Z,65.03
2024-02-24T16:20:04.209Z,43.28
2024-02-24T16:22:31.956Z,57.85
2024-02-24T16:24:59.222Z,56.75
2024-02-24T16:27:26.995Z,47.45
2024-02-24T16:29:54.367Z,46.30
2024-02-24T16:32:22.085Z,53.00
2024-02-24T16:34:49.629Z,60.65
2024-02-24T16:37:17.131Z,56.08
2024-02-24T16:39:44.910Z,53.35
2024-02-24T16:42:12.323Z,63.08
2024-02-24T16:44:39.478Z,66.22
2024-02-24T16:47:07.312Z,51.90
2024-02-24T16:49:34.817Z,48.57
2024-02-24T16:52:02.193Z,56.30
2024-02-24T16:54:29.467Z,55.17
2024-02-24T16:56:57.547Z,61.40
2024-02-24T16:59:24.658Z,61.38
2024-02-24T17:01:52.293Z,65.38
2024-02-24T17:04:20.121Z,54.65
2024-02-24T17:06:47.640Z,57.95
2024-02-24T17:09:15.537Z,55.85
2024-02-24T17:11:43.290Z,55.70
2024-02-24T17:14:10.770Z,29.40
2024-02-24T17:16:38.400Z,40.95
2024-02-24T17:19:05.631Z,40.40
2024-02-24T17:21:33.866Z,34.95
2024-02-24T17:24:01.006Z,35.97
2024-02-24T17:26:28.655Z,38.75
2024-02-24T17:28:55.902Z,38.53
2024-02-24T17:31:23.688Z,45.35
2024-02-24T17:33:51.051Z,44.30
2024-02-24T17:36:18.861Z,55.28
2024-02-24T17:38:46.116Z,39.72
2024-02-24T17:41:14.174Z,35.33
2024-02-24T17:43:41.951Z,25.17
2024-02-24T17:46:09.542Z,20.73
2024-02-24T17:48:37.108Z,24.25
2024-02-24T17:51:04.883Z,25.20
2024-02-24T17:53:32.247Z,33.83
2024-02-24T17:56:00.050Z,28.70
2024-02-24T17:58:36.252Z,25.55
2024-02-24T18:01:11.416Z,29.05
2024-02-24T18:03:39.245Z,45.03
2024-02-24T18:06:06.764Z,38.70
2024-02-24T18:08:34.197Z,43.38
2024-02-24T18:11:01.908Z,49.20
2024-02-24T18:13:29.300Z,37.03
2024-02-24T18:15:56.358Z,36.75
2024-02-24T18:18:24.372Z,43.03
2024-02-24T18:20:51.530Z,40.10
2024-02-24T18:23:19.061Z,41.90
2024-02-24T18:25:46.331Z,22.02
2024-02-24T18:28:13.715Z,19.25
2024-02-24T18:30:41.315Z,20.98
2024-02-24T18:33:09.482Z,16.20
2024-02-24T18:35:36.687Z,15.85
2024-02-24T18:38:04.556Z,18.80
2024-02-24T18:40:31.829Z,23.10
2024-02-24T18:42:59.149Z,27.80
2024-02-24T18:45:26.202Z,33.85
2024-02-24T18:47:53.916Z,35.63
2024-02-24T18:50:22.147Z,19.50
2024-02-24T18:52:49.750Z,19.05
2024-02-24T18:55:18.381Z,39.17
2024-02-24T18:57:45.680Z,33.05
2024-02-24T19:00:13.299Z,33.30
2024-02-24T19:02:43.765Z,27.33
2024-02-24T19:05:12.721Z,23.58
2024-02-24T19:07:42.012Z,34.72
2024-02-24T19:10:10.143Z,25.67
2024-02-24T19:12:37.583Z,24.42
2024-02-24T19:15:09.735Z,15.15
2024-02-24T19:17:37.489Z,14.95
2024-02-24T19:20:07.815Z,30.10
2024-02-24T19:22:35.698Z,33.10
2024-02-24T19:25:02.874Z,23.33
2024-02-24T19:27:30.455Z,25.23
2024-02-24T19:29:57.590Z,24.70
2024-02-24T19:32:25.186Z,40.05
2024-02-24T19:34:55.317Z,50.33
2024-02-24T19:37:22.898Z,22.95
2024-02-24T19:39:50.553Z,25.15
2024-02-24T19:42:18.667Z,37.67
2024-02-24T19:44:45.735Z,35.22
2024-02-24T19:47:13.725Z,53.03
2024-02-24T19:49:41.177Z,42.13
2024-02-24T19:52:08.745Z,36.90
2024-02-24T19:54:36.401Z,38.17
2024-02-24T19:57:04.291Z,39.65
2024-02-24T19:59:31.875Z,37.30
2024-02-24T20:02:01.177Z,37.75
2024-02-24T20:04:33.328Z,39.33
2024-02-24T20:07:01.057Z,41.83
2024-02-24T20:09:28.750Z,35.28
2024-02-24T20:11:56.119Z,35.28
2024-02-24T20:14:24.090Z,26.13
2024-02-24T20:16:51.760Z,17.88
2024-02-24T20:19:18.877Z,18.08
2024-02-24T20:21:46.240Z,19.90
2024-02-24T20:24:13.668Z,20.07
2024-02-24T20:26:41.362Z,18.98
2024-02-24T20:29:09.849Z,18.95
2024-02-24T20:31:37.335Z,20.77
2024-02-24T20:34:08.292Z,21.90
2024-02-24T20:36:37.471Z,18.65
2024-02-24T20:39:04.677Z,18.25
2024-02-24T20:41:32.141Z,17.70
2024-02-24T20:44:01.435Z,18.08
2024-02-24T20:46:31.822Z,19.48
2024-02-24T20:48:59.647Z,22.40
2024-02-24T20:51:27.871Z,19.48
2024-02-24T20:53:55.079Z,17.27
2024-02-24T20:56:22.803Z,17.95
2024-02-24T20:58:50.402Z,19.98
2024-02-24T21:01:17.803Z,23.50
2024-02-24T21:03:45.148Z,24.90
2024-02-24T21:06:12.629Z,22.40
2024-02-24T21:08:39.866Z,22.67
2024-02-24T21:11:08.519Z,22.42
2024-02-24T21:13:35.677Z,24.80
2024-02-24T21:16:03.095Z,25.25
2024-02-24T21:18:31.955Z,26.65
2024-02-24T21:20:59.697Z,27.05
2024-02-24T21:23:26.927Z,26.17
2024-02-24T21:25:53.990Z,25.70
2024-02-24T21:28:21.078Z,26.88
2024-02-24T21:30:48.891Z,26.75
2024-02-24T21:33:18.156Z,33.95
2024-02-24T21:35:45.607Z,34.28
2024-02-24T21:38:12.668Z,31.98
2024-02-24T21:40:42.225Z,28.85
2024-02-24T21:43:09.316Z,28.38
2024-02-24T21:45:36.599Z,26.88
2024-02-24T21:48:04.127Z,27.35
2024-02-24T21:50:31.339Z,28.30
2024-02-24T21:52:58.430Z,27.52
2024-02-24T21:55:26.314Z,27.35
2024-02-24T21:57:53.391Z,21.65
2024-02-24T22:00:20.731Z,22.90
2024-02-24T22:02:52.939Z,19.85
2024-02-24T22:05:20.280Z,17.77
2024-02-24T22:07:47.505Z,15.90
2024-02-24T22:10:14.812Z,17.67
2024-02-24T22:12:42.852Z,18.67
2024-02-24T22:15:14.112Z,18.30
2024-02-24T22:17:42.848Z,18.30
2024-02-24T22:20:11.115Z,17.60
2024-02-24T22:22:40.805Z,18.13
2024-02-24T22:25:08.358Z,19.67
2024-02-24T22:27:35.842Z,20.90
2024-02-24T22:30:12.658Z,21.83
2024-02-24T22:32:44.403Z,28.40
2024-02-24T22:35:11.980Z,24.55
2024-02-24T22:37:39.192Z,24.17
2024-02-24T22:40:06.984Z,23.27
2024-02-24T22:42:36.996Z,17.90
2024-02-24T22:45:06.104Z,16.92
2024-02-24T22:47:33.330Z,18.38
2024-02-24T22:50:00.925Z,18.88
2024-02-24T22:52:27.972Z,20.27
2024-02-24T22:54:55.594Z,19.52
2024-02-24T22:57:23.403Z,17.50
2024-02-24T22:59:50.775Z,19.17
2024-02-24T23:02:18.057Z,25.67
2024-02-24T23:04:45.288Z,23.13
2024-02-24T23:07:12.585Z,23.77
2024-02-24T23:09:39.776Z,26.38
2024-02-24T23:12:07.161Z,23.85
2024-02-24T23:14:34.342Z,23.52
2024-02-24T23:17:01.476Z,22.90
2024-02-24T23:19:29.851Z,21.15
2024-02-24T23:21:57.002Z,20.65
2024-02-24T23:24:27.293Z,19.58
2024-02-24T23:26:54.508Z,20.65
2024-02-24T23:29:21.907Z,19.60
2024-02-24T23:31:50.891Z,18.90
2024-02-24T23:34:18.274Z,17.67
2024-02-24T23:36:45.531Z,16.42
2024-02-24T23:39:12.744Z,16.42
2024-02-24T23:41:39.925Z,15.50
2024-02-24T23:44:07.139Z,17.60
2024-02-24T23:46:34.299Z,18.92
2024-02-24T23:49:02.220Z,26.88
2024-02-24T23:51:29.441Z,32.87
2024-02-24T23:53:59.705Z,29.90
2024-02-24T23:56:27.073Z,26.38
2024-02-24T23:58:54.215Z,28.25
